sensor_id;sensor_type;location;lat;lon;timestamp;pressure;altitude;pressure_sealevel;temperature;humidity
20987;BME280;10652;50.306;8.570;2023-05-14T00:02:05;98159.03;;;7.86;99.73
20987;BME280;10652;50.306;8.570;2023-05-14T00:06:07;98152.84;;;7.89;100.00
20987;BME280;10652;50.306;8.570;2023-05-14T00:10:10;98148.53;;;7.88;99.62
20987;BME280;10652;50.306;8.570;2023-05-14T00:14:12;98148.25;;;7.70;98.43
20987;BME280;10652;50.306;8.570;2023-05-14T00:18:14;98147.03;;;7.54;99.91
20987;BME280;10652;50.306;8.570;2023-05-14T00:22:16;98140.44;;;7.44;100.00
20987;BME280;10652;50.306;8.570;2023-05-14T00:26:18;98139.50;;;7.45;100.00
20987;BME280;10652;50.306;8.570;2023-05-14T00:30:22;98137.25;;;7.34;100.00
20987;BME280;10652;50.306;8.570;2023-05-14T00:34:25;98126.75;;;7.36;100.00
20987;BME280;10652;50.306;8.570;2023-05-14T00:38:27;98122.38;;;7.36;100.00
20987;BME280;10652;50.306;8.570;2023-05-14T00:42:29;98132.28;;;7.27;100.00
20987;BME280;10652;50.306;8.570;2023-05-14T00:46:31;98118.72;;;7.16;100.00
20987;BME280;10652;50.306;8.570;2023-05-14T00:50:33;98122.13;;;7.18;100.00
20987;BME280;10652;50.306;8.570;2023-05-14T00:54:36;98128.97;;;7.22;100.00
20987;BME280;10652;50.306;8.570;2023-05-14T00:58:38;98121.16;;;7.22;100.00
20987;BME280;10652;50.306;8.570;2023-05-14T01:02:40;98117.00;;;7.15;100.00
20987;BME280;10652;50.306;8.570;2023-05-14T01:11:31;98122.22;;;6.87;100.00
20987;BME280;10652;50.306;8.570;2023-05-14T01:15:36;98116.38;;;6.80;100.00
20987;BME280;10652;50.306;8.570;2023-05-14T01:19:42;98113.75;;;6.80;100.00
20987;BME280;10652;50.306;8.570;2023-05-14T01:23:45;98108.75;;;6.73;100.00
20987;BME280;10652;50.306;8.570;2023-05-14T01:28:02;98112.50;;;6.64;100.00
20987;BME280;10652;50.306;8.570;2023-05-14T01:32:06;98115.66;;;6.46;100.00
20987;BME280;10652;50.306;8.570;2023-05-14T01:36:09;98118.13;;;6.51;100.00
20987;BME280;10652;50.306;8.570;2023-05-14T01:40:11;98117.19;;;6.53;100.00
20987;BME280;10652;50.306;8.570;2023-05-14T01:44:14;98115.22;;;6.61;100.00
20987;BME280;10652;50.306;8.570;2023-05-14T01:48:16;98111.59;;;6.65;100.00
20987;BME280;10652;50.306;8.570;2023-05-14T01:52:18;98114.94;;;6.70;100.00
20987;BME280;10652;50.306;8.570;2023-05-14T01:56:22;98118.34;;;6.72;100.00
20987;BME280;10652;50.306;8.570;2023-05-14T02:00:24;98109.53;;;6.76;100.00
20987;BME280;10652;50.306;8.570;2023-05-14T02:04:27;98104.31;;;6.76;100.00
20987;BME280;10652;50.306;8.570;2023-05-14T02:08:29;98112.50;;;6.64;100.00
20987;BME280;10652;50.306;8.570;2023-05-14T02:12:31;98107.03;;;6.44;100.00
20987;BME280;10652;50.306;8.570;2023-05-14T02:16:33;98104.97;;;6.24;100.00
20987;BME280;10652;50.306;8.570;2023-05-14T02:20:35;98110.69;;;6.06;100.00
20987;BME280;10652;50.306;8.570;2023-05-14T02:24:37;98100.28;;;6.06;100.00
20987;BME280;10652;50.306;8.570;2023-05-14T02:28:39;98107.00;;;6.13;100.00
20987;BME280;10652;50.306;8.570;2023-05-14T02:32:41;98103.50;;;6.14;100.00
20987;BME280;10652;50.306;8.570;2023-05-14T02:36:43;98086.59;;;5.98;100.00
20987;BME280;10652;50.306;8.570;2023-05-14T02:40:46;98092.97;;;5.88;100.00
20987;BME280;10652;50.306;8.570;2023-05-14T02:44:48;98091.44;;;5.81;100.00
20987;BME280;10652;50.306;8.570;2023-05-14T02:48:50;98087.84;;;5.85;100.00
20987;BME280;10652;50.306;8.570;2023-05-14T02:52:52;98085.84;;;5.94;100.00
20987;BME280;10652;50.306;8.570;2023-05-14T02:56:54;98081.25;;;6.02;100.00
20987;BME280;10652;50.306;8.570;2023-05-14T03:00:56;98077.06;;;5.97;100.00
20987;BME280;10652;50.306;8.570;2023-05-14T03:05:01;98078.06;;;5.93;100.00
20987;BME280;10652;50.306;8.570;2023-05-14T03:09:03;98082.44;;;5.91;100.00
20987;BME280;10652;50.306;8.570;2023-05-14T03:13:05;98079.16;;;5.84;100.00
20987;BME280;10652;50.306;8.570;2023-05-14T03:17:07;98082.50;;;5.89;100.00
20987;BME280;10652;50.306;8.570;2023-05-14T03:21:09;98075.41;;;5.94;100.00
20987;BME280;10652;50.306;8.570;2023-05-14T03:25:11;98077.03;;;5.98;100.00
20987;BME280;10652;50.306;8.570;2023-05-14T03:29:13;98076.19;;;5.96;100.00
20987;BME280;10652;50.306;8.570;2023-05-14T03:33:18;98073.75;;;5.90;100.00
20987;BME280;10652;50.306;8.570;2023-05-14T03:37:21;98064.81;;;5.68;100.00
20987;BME280;10652;50.306;8.570;2023-05-14T03:41:23;98067.88;;;5.53;100.00
20987;BME280;10652;50.306;8.570;2023-05-14T03:45:25;98063.38;;;5.58;100.00
20987;BME280;10652;50.306;8.570;2023-05-14T03:49:29;98069.25;;;5.66;100.00
20987;BME280;10652;50.306;8.570;2023-05-14T03:53:31;98062.91;;;5.75;100.00
20987;BME280;10652;50.306;8.570;2023-05-14T03:57:33;98072.88;;;5.91;100.00
20987;BME280;10652;50.306;8.570;2023-05-14T04:01:36;98082.16;;;6.01;100.00
20987;BME280;10652;50.306;8.570;2023-05-14T04:05:38;98079.41;;;6.06;100.00
20987;BME280;10652;50.306;8.570;2023-05-14T04:09:40;98079.38;;;6.08;100.00
20987;BME280;10652;50.306;8.570;2023-05-14T04:13:42;98079.91;;;6.19;100.00
20987;BME280;10652;50.306;8.570;2023-05-14T04:17:45;98075.28;;;6.30;100.00
20987;BME280;10652;50.306;8.570;2023-05-14T04:21:47;98074.88;;;6.71;100.00
20987;BME280;10652;50.306;8.570;2023-05-14T04:25:49;98085.94;;;6.79;100.00
20987;BME280;10652;50.306;8.570;2023-05-14T04:29:51;98082.25;;;7.89;100.00
20987;BME280;10652;50.306;8.570;2023-05-14T04:33:53;98073.88;;;9.78;98.79
20987;BME280;10652;50.306;8.570;2023-05-14T04:37:55;98085.16;;;9.80;88.67
20987;BME280;10652;50.306;8.570;2023-05-14T04:41:57;98085.31;;;9.13;85.33
20987;BME280;10652;50.306;8.570;2023-05-14T04:45:59;98086.91;;;8.74;86.14
20987;BME280;10652;50.306;8.570;2023-05-14T04:50:01;98090.38;;;8.52;87.25
20987;BME280;10652;50.306;8.570;2023-05-14T04:54:03;98093.91;;;8.28;87.95
20987;BME280;10652;50.306;8.570;2023-05-14T04:58:05;98092.66;;;8.13;89.05
20987;BME280;10652;50.306;8.570;2023-05-14T05:02:08;98090.13;;;8.12;90.91
20987;BME280;10652;50.306;8.570;2023-05-14T05:06:10;98096.13;;;8.14;90.56
20987;BME280;10652;50.306;8.570;2023-05-14T05:10:12;98102.56;;;8.30;90.97
20987;BME280;10652;50.306;8.570;2023-05-14T05:14:14;98096.63;;;8.48;89.98
20987;BME280;10652;50.306;8.570;2023-05-14T05:18:16;98087.44;;;8.60;89.91
20987;BME280;10652;50.306;8.570;2023-05-14T05:22:18;98090.03;;;9.05;89.20
20987;BME280;10652;50.306;8.570;2023-05-14T05:26:21;98088.06;;;9.10;87.84
20987;BME280;10652;50.306;8.570;2023-05-14T05:30:23;98087.75;;;9.39;89.13
20987;BME280;10652;50.306;8.570;2023-05-14T05:34:25;98085.81;;;9.85;87.64
20987;BME280;10652;50.306;8.570;2023-05-14T05:38:28;98083.41;;;9.80;86.75
20987;BME280;10652;50.306;8.570;2023-05-14T05:42:30;98080.84;;;9.79;87.39
20987;BME280;10652;50.306;8.570;2023-05-14T05:46:32;98081.09;;;9.93;87.86
20987;BME280;10652;50.306;8.570;2023-05-14T05:50:34;98082.06;;;9.90;86.30
20987;BME280;10652;50.306;8.570;2023-05-14T05:54:36;98091.94;;;10.04;86.10
20987;BME280;10652;50.306;8.570;2023-05-14T05:58:40;98080.84;;;10.36;85.58
20987;BME280;10652;50.306;8.570;2023-05-14T06:02:42;98085.19;;;10.37;85.22
20987;BME280;10652;50.306;8.570;2023-05-14T06:06:45;98087.47;;;10.45;86.69
20987;BME280;10652;50.306;8.570;2023-05-14T06:10:47;98081.03;;;10.71;87.09
20987;BME280;10652;50.306;8.570;2023-05-14T06:14:49;98089.28;;;10.99;86.97
20987;BME280;10652;50.306;8.570;2023-05-14T06:18:52;98091.72;;;11.40;86.81
20987;BME280;10652;50.306;8.570;2023-05-14T06:22:55;98090.84;;;11.91;86.39
20987;BME280;10652;50.306;8.570;2023-05-14T06:26:57;98092.00;;;12.68;84.38
20987;BME280;10652;50.306;8.570;2023-05-14T06:30:59;98089.59;;;13.26;81.99
20987;BME280;10652;50.306;8.570;2023-05-14T06:35:01;98089.97;;;13.50;78.75
20987;BME280;10652;50.306;8.570;2023-05-14T06:39:03;98088.91;;;14.83;77.53
20987;BME280;10652;50.306;8.570;2023-05-14T06:43:05;98086.53;;;15.46;70.54
20987;BME280;10652;50.306;8.570;2023-05-14T06:47:07;98086.34;;;14.81;66.62
20987;BME280;10652;50.306;8.570;2023-05-14T06:51:09;98089.47;;;14.03;67.79
20987;BME280;10652;50.306;8.570;2023-05-14T06:55:12;98081.84;;;13.69;70.92
20987;BME280;10652;50.306;8.570;2023-05-14T06:59:14;98071.56;;;15.06;72.07
20987;BME280;10652;50.306;8.570;2023-05-14T07:03:16;98073.34;;;17.22;59.64
20987;BME280;10652;50.306;8.570;2023-05-14T07:07:18;98070.13;;;18.78;56.66
20987;BME280;10652;50.306;8.570;2023-05-14T07:11:22;98074.38;;;18.36;53.21
20987;BME280;10652;50.306;8.570;2023-05-14T07:15:24;98070.78;;;16.35;55.90
20987;BME280;10652;50.306;8.570;2023-05-14T07:19:26;98065.03;;;14.84;62.87
20987;BME280;10652;50.306;8.570;2023-05-14T07:23:29;98072.78;;;14.31;67.03
20987;BME280;10652;50.306;8.570;2023-05-14T07:27:33;98066.91;;;13.83;69.31
20987;BME280;10652;50.306;8.570;2023-05-14T07:31:36;98055.53;;;13.67;72.28
20987;BME280;10652;50.306;8.570;2023-05-14T07:35:38;98060.81;;;13.67;74.65
20987;BME280;10652;50.306;8.570;2023-05-14T07:39:40;98051.19;;;13.52;75.25
20987;BME280;10652;50.306;8.570;2023-05-14T07:43:42;98051.38;;;13.63;75.44
20987;BME280;10652;50.306;8.570;2023-05-14T07:47:44;98048.44;;;13.97;77.33
20987;BME280;10652;50.306;8.570;2023-05-14T07:51:46;98040.28;;;13.86;74.20
20987;BME280;10652;50.306;8.570;2023-05-14T07:55:48;98044.47;;;14.05;69.42
20987;BME280;10652;50.306;8.570;2023-05-14T07:59:51;98036.91;;;14.13;68.32
20987;BME280;10652;50.306;8.570;2023-05-14T08:03:53;98039.00;;;14.08;66.68
20987;BME280;10652;50.306;8.570;2023-05-14T08:07:55;98030.97;;;14.09;68.20
20987;BME280;10652;50.306;8.570;2023-05-14T08:11:58;98028.03;;;14.28;63.91
20987;BME280;10652;50.306;8.570;2023-05-14T08:16:00;98031.63;;;14.41;62.46
20987;BME280;10652;50.306;8.570;2023-05-14T08:20:02;98019.03;;;14.73;60.09
20987;BME280;10652;50.306;8.570;2023-05-14T08:24:07;98012.84;;;14.86;58.99
20987;BME280;10652;50.306;8.570;2023-05-14T08:28:09;98014.25;;;15.19;59.13
20987;BME280;10652;50.306;8.570;2023-05-14T08:32:11;98011.25;;;15.11;58.20
20987;BME280;10652;50.306;8.570;2023-05-14T08:36:24;98011.06;;;15.14;59.08
20987;BME280;10652;50.306;8.570;2023-05-14T08:40:26;98012.59;;;15.30;62.59
20987;BME280;10652;50.306;8.570;2023-05-14T08:44:36;98016.72;;;15.61;60.14
20987;BME280;10652;50.306;8.570;2023-05-14T08:48:41;98007.06;;;15.60;56.76
20987;BME280;10652;50.306;8.570;2023-05-14T08:52:43;98009.31;;;15.79;55.64
20987;BME280;10652;50.306;8.570;2023-05-14T08:56:45;98003.13;;;16.04;55.83
20987;BME280;10652;50.306;8.570;2023-05-14T09:00:48;97993.28;;;16.06;56.06
20987;BME280;10652;50.306;8.570;2023-05-14T09:04:54;97995.69;;;16.21;56.11
20987;BME280;10652;50.306;8.570;2023-05-14T09:08:56;97988.94;;;16.30;52.91
20987;BME280;10652;50.306;8.570;2023-05-14T09:12:58;97999.13;;;15.98;55.20
20987;BME280;10652;50.306;8.570;2023-05-14T09:17:00;97988.72;;;15.57;56.97
20987;BME280;10652;50.306;8.570;2023-05-14T09:21:03;97993.56;;;15.38;58.52
20987;BME280;10652;50.306;8.570;2023-05-14T09:25:07;97990.97;;;15.24;60.16
20987;BME280;10652;50.306;8.570;2023-05-14T09:29:11;97995.94;;;15.16;60.60
20987;BME280;10652;50.306;8.570;2023-05-14T09:33:25;97993.97;;;15.45;59.38
20987;BME280;10652;50.306;8.570;2023-05-14T09:37:28;97992.13;;;15.72;58.10
20987;BME280;10652;50.306;8.570;2023-05-14T09:41:30;97984.03;;;15.48;59.49
20987;BME280;10652;50.306;8.570;2023-05-14T09:45:33;97986.94;;;15.70;59.94
20987;BME280;10652;50.306;8.570;2023-05-14T09:49:35;97993.00;;;15.85;58.02
20987;BME280;10652;50.306;8.570;2023-05-14T09:53:37;97984.94;;;15.61;59.24
20987;BME280;10652;50.306;8.570;2023-05-14T09:57:40;97988.91;;;15.54;59.89
20987;BME280;10652;50.306;8.570;2023-05-14T10:01:42;97989.16;;;15.12;62.04
20987;BME280;10652;50.306;8.570;2023-05-14T10:05:47;97983.31;;;15.07;62.07
20987;BME280;10652;50.306;8.570;2023-05-14T10:09:53;97988.97;;;14.88;62.28
20987;BME280;10652;50.306;8.570;2023-05-14T10:14:07;97985.56;;;14.86;63.06
20987;BME280;10652;50.306;8.570;2023-05-14T10:18:11;97983.00;;;15.11;62.60
20987;BME280;10652;50.306;8.570;2023-05-14T10:22:15;97987.41;;;15.50;63.32
20987;BME280;10652;50.306;8.570;2023-05-14T10:26:19;97981.75;;;16.07;60.88
20987;BME280;10652;50.306;8.570;2023-05-14T10:30:25;97973.94;;;16.42;59.85
20987;BME280;10652;50.306;8.570;2023-05-14T10:34:39;97974.56;;;16.82;58.17
20987;BME280;10652;50.306;8.570;2023-05-14T10:38:42;97963.53;;;16.99;57.17
20987;BME280;10652;50.306;8.570;2023-05-14T10:42:45;97967.53;;;17.28;55.43
20987;BME280;10652;50.306;8.570;2023-05-14T10:46:47;97963.56;;;17.34;55.53
20987;BME280;10652;50.306;8.570;2023-05-14T10:50:49;97961.88;;;16.98;55.77
20987;BME280;10652;50.306;8.570;2023-05-14T10:55:00;97957.13;;;16.67;56.00
20987;BME280;10652;50.306;8.570;2023-05-14T10:59:05;97949.41;;;16.51;57.59
20987;BME280;10652;50.306;8.570;2023-05-14T11:03:07;97945.69;;;16.53;56.80
20987;BME280;10652;50.306;8.570;2023-05-14T11:07:11;97944.59;;;16.92;56.50
20987;BME280;10652;50.306;8.570;2023-05-14T11:11:13;97940.25;;;17.26;56.70
20987;BME280;10652;50.306;8.570;2023-05-14T11:15:21;97943.53;;;17.30;54.46
20987;BME280;10652;50.306;8.570;2023-05-14T11:19:23;97940.88;;;17.41;53.44
20987;BME280;10652;50.306;8.570;2023-05-14T11:23:25;97936.50;;;17.52;53.16
20987;BME280;10652;50.306;8.570;2023-05-14T11:27:28;97937.06;;;17.10;52.73
20987;BME280;10652;50.306;8.570;2023-05-14T11:31:30;97932.63;;;16.63;54.38
20987;BME280;10652;50.306;8.570;2023-05-14T11:35:32;97918.59;;;16.37;55.09
20987;BME280;10652;50.306;8.570;2023-05-14T11:39:34;97919.94;;;16.55;55.32
20987;BME280;10652;50.306;8.570;2023-05-14T11:43:38;97918.97;;;16.56;53.88
20987;BME280;10652;50.306;8.570;2023-05-14T11:47:40;97909.31;;;16.55;54.23
20987;BME280;10652;50.306;8.570;2023-05-14T11:51:43;97910.06;;;16.57;55.07
20987;BME280;10652;50.306;8.570;2023-05-14T11:55:45;97906.13;;;16.50;54.35
20987;BME280;10652;50.306;8.570;2023-05-14T11:59:54;97899.34;;;16.46;55.04
20987;BME280;10652;50.306;8.570;2023-05-14T12:03:59;97899.47;;;16.57;55.78
20987;BME280;10652;50.306;8.570;2023-05-14T12:08:01;97899.56;;;16.80;54.63
20987;BME280;10652;50.306;8.570;2023-05-14T12:12:07;97902.94;;;16.82;54.97
20987;BME280;10652;50.306;8.570;2023-05-14T12:16:11;97893.06;;;16.84;55.24
20987;BME280;10652;50.306;8.570;2023-05-14T12:20:13;97890.91;;;16.89;55.13
20987;BME280;10652;50.306;8.570;2023-05-14T12:24:17;97877.66;;;17.00;54.33
20987;BME280;10652;50.306;8.570;2023-05-14T12:28:22;97877.25;;;17.28;54.24
20987;BME280;10652;50.306;8.570;2023-05-14T12:32:25;97870.28;;;17.38;53.94
20987;BME280;10652;50.306;8.570;2023-05-14T12:36:27;97859.41;;;17.30;53.39
20987;BME280;10652;50.306;8.570;2023-05-14T12:40:29;97854.91;;;17.31;53.22
20987;BME280;10652;50.306;8.570;2023-05-14T12:44:31;97845.09;;;17.44;51.75
20987;BME280;10652;50.306;8.570;2023-05-14T12:48:33;97845.69;;;17.47;51.30
20987;BME280;10652;50.306;8.570;2023-05-14T12:52:35;97830.00;;;17.67;51.03
20987;BME280;10652;50.306;8.570;2023-05-14T12:56:40;97828.06;;;17.80;51.40
20987;BME280;10652;50.306;8.570;2023-05-14T13:00:43;97831.69;;;17.79;49.30
20987;BME280;10652;50.306;8.570;2023-05-14T13:04:45;97822.34;;;17.95;49.90
20987;BME280;10652;50.306;8.570;2023-05-14T13:08:47;97806.19;;;18.41;48.99
20987;BME280;10652;50.306;8.570;2023-05-14T13:12:49;97804.41;;;18.63;47.19
20987;BME280;10652;50.306;8.570;2023-05-14T13:16:53;97803.38;;;18.11;49.39
20987;BME280;10652;50.306;8.570;2023-05-14T13:20:55;97791.81;;;17.68;49.18
20987;BME280;10652;50.306;8.570;2023-05-14T13:24:58;97794.97;;;17.73;50.24
20987;BME280;10652;50.306;8.570;2023-05-14T13:29:00;97791.41;;;17.94;48.48
20987;BME280;10652;50.306;8.570;2023-05-14T13:33:02;97790.78;;;18.13;46.60
20987;BME280;10652;50.306;8.570;2023-05-14T13:37:04;97784.91;;;18.41;47.47
20987;BME280;10652;50.306;8.570;2023-05-14T13:41:07;97786.31;;;18.57;47.03
20987;BME280;10652;50.306;8.570;2023-05-14T13:45:09;97791.31;;;18.71;45.73
20987;BME280;10652;50.306;8.570;2023-05-14T13:49:12;97791.34;;;18.28;44.81
20987;BME280;10652;50.306;8.570;2023-05-14T13:53:14;97786.09;;;17.94;46.66
20987;BME280;10652;50.306;8.570;2023-05-14T13:57:16;97770.44;;;18.23;46.84
20987;BME280;10652;50.306;8.570;2023-05-14T14:01:18;97767.56;;;18.79;45.49
20987;BME280;10652;50.306;8.570;2023-05-14T14:05:20;97771.53;;;18.84;44.80
20987;BME280;10652;50.306;8.570;2023-05-14T14:09:24;97765.81;;;18.36;47.87
20987;BME280;10652;50.306;8.570;2023-05-14T14:13:27;97763.59;;;18.53;47.53
20987;BME280;10652;50.306;8.570;2023-05-14T14:17:30;97752.22;;;18.92;47.51
20987;BME280;10652;50.306;8.570;2023-05-14T14:21:32;97747.25;;;19.08;46.66
20987;BME280;10652;50.306;8.570;2023-05-14T14:25:36;97741.09;;;19.28;46.76
20987;BME280;10652;50.306;8.570;2023-05-14T14:29:38;97735.50;;;19.11;47.72
20987;BME280;10652;50.306;8.570;2023-05-14T14:33:40;97743.84;;;18.97;47.10
20987;BME280;10652;50.306;8.570;2023-05-14T14:37:42;97731.50;;;18.54;49.28
20987;BME280;10652;50.306;8.570;2023-05-14T14:41:49;97730.81;;;18.20;51.66
20987;BME280;10652;50.306;8.570;2023-05-14T14:45:51;97738.09;;;17.75;52.98
20987;BME280;10652;50.306;8.570;2023-05-14T14:49:53;97736.44;;;17.30;54.76
20987;BME280;10652;50.306;8.570;2023-05-14T14:53:55;97739.44;;;17.03;55.34
20987;BME280;10652;50.306;8.570;2023-05-14T14:57:57;97738.22;;;16.96;54.91
20987;BME280;10652;50.306;8.570;2023-05-14T15:01:59;97744.13;;;16.99;55.31
20987;BME280;10652;50.306;8.570;2023-05-14T15:06:01;97740.38;;;16.91;53.73
20987;BME280;10652;50.306;8.570;2023-05-14T15:10:04;97742.31;;;16.89;53.38
20987;BME280;10652;50.306;8.570;2023-05-14T15:14:06;97741.97;;;16.93;52.10
20987;BME280;10652;50.306;8.570;2023-05-14T15:18:08;97739.78;;;16.87;50.12
20987;BME280;10652;50.306;8.570;2023-05-14T15:22:11;97732.44;;;17.02;50.42
20987;BME280;10652;50.306;8.570;2023-05-14T15:26:13;97734.00;;;17.38;50.09
20987;BME280;10652;50.306;8.570;2023-05-14T15:30:15;97747.88;;;17.08;54.43
20987;BME280;10652;50.306;8.570;2023-05-14T15:34:17;97775.13;;;16.99;53.83
20987;BME280;10652;50.306;8.570;2023-05-14T15:38:19;97765.41;;;16.64;55.24
20987;BME280;10652;50.306;8.570;2023-05-14T15:42:21;97770.06;;;16.26;55.85
20987;BME280;10652;50.306;8.570;2023-05-14T15:46:23;97768.28;;;16.03;56.67
20987;BME280;10652;50.306;8.570;2023-05-14T15:50:26;97764.66;;;15.80;57.70
20987;BME280;10652;50.306;8.570;2023-05-14T15:54:28;97756.06;;;15.76;60.40
20987;BME280;10652;50.306;8.570;2023-05-14T15:58:30;97750.59;;;15.54;59.22
20987;BME280;10652;50.306;8.570;2023-05-14T16:02:32;97750.25;;;15.35;60.47
20987;BME280;10652;50.306;8.570;2023-05-14T16:06:35;97743.44;;;15.31;60.67
20987;BME280;10652;50.306;8.570;2023-05-14T16:10:37;97741.97;;;15.27;61.65
20987;BME280;10652;50.306;8.570;2023-05-14T16:14:39;97736.06;;;15.23;58.12
20987;BME280;10652;50.306;8.570;2023-05-14T16:18:43;97733.00;;;15.29;58.93
20987;BME280;10652;50.306;8.570;2023-05-14T16:22:45;97741.13;;;15.39;56.81
20987;BME280;10652;50.306;8.570;2023-05-14T16:26:47;97732.34;;;15.39;56.39
20987;BME280;10652;50.306;8.570;2023-05-14T16:30:49;97728.41;;;15.44;56.24
20987;BME280;10652;50.306;8.570;2023-05-14T16:34:51;97723.94;;;15.57;56.42
20987;BME280;10652;50.306;8.570;2023-05-14T16:38:53;97724.53;;;15.73;55.67
20987;BME280;10652;50.306;8.570;2023-05-14T16:43:08;97727.13;;;15.86;54.64
20987;BME280;10652;50.306;8.570;2023-05-14T16:47:10;97732.31;;;15.88;54.05
20987;BME280;10652;50.306;8.570;2023-05-14T16:51:12;97731.09;;;15.81;54.63
20987;BME280;10652;50.306;8.570;2023-05-14T16:55:15;97723.28;;;15.66;53.59
20987;BME280;10652;50.306;8.570;2023-05-14T16:59:17;97721.59;;;15.65;53.17
20987;BME280;10652;50.306;8.570;2023-05-14T17:03:19;97718.19;;;15.63;52.39
20987;BME280;10652;50.306;8.570;2023-05-14T17:07:21;97718.63;;;15.57;54.34
20987;BME280;10652;50.306;8.570;2023-05-14T17:11:23;97712.06;;;15.50;55.31
20987;BME280;10652;50.306;8.570;2023-05-14T17:15:25;97712.31;;;15.47;55.39
20987;BME280;10652;50.306;8.570;2023-05-14T17:19:27;97713.56;;;15.42;55.00
20987;BME280;10652;50.306;8.570;2023-05-14T17:23:29;97717.72;;;15.33;54.26
20987;BME280;10652;50.306;8.570;2023-05-14T17:27:31;97718.38;;;15.24;54.02
20987;BME280;10652;50.306;8.570;2023-05-14T17:31:34;97713.84;;;15.26;55.58
20987;BME280;10652;50.306;8.570;2023-05-14T17:35:36;97723.78;;;15.22;56.24
20987;BME280;10652;50.306;8.570;2023-05-14T17:39:38;97730.38;;;15.04;55.03
20987;BME280;10652;50.306;8.570;2023-05-14T17:43:41;97733.66;;;14.82;56.31
20987;BME280;10652;50.306;8.570;2023-05-14T17:47:42;97738.75;;;14.60;57.90
20987;BME280;10652;50.306;8.570;2023-05-14T17:51:45;97732.03;;;14.42;59.35
20987;BME280;10652;50.306;8.570;2023-05-14T17:55:47;97740.25;;;14.37;60.67
20987;BME280;10652;50.306;8.570;2023-05-14T17:59:50;97739.91;;;14.17;61.73
20987;BME280;10652;50.306;8.570;2023-05-14T18:03:53;97740.16;;;13.99;63.15
20987;BME280;10652;50.306;8.570;2023-05-14T18:07:55;97741.19;;;13.84;64.43
20987;BME280;10652;50.306;8.570;2023-05-14T18:11:58;97737.44;;;13.74;65.75
20987;BME280;10652;50.306;8.570;2023-05-14T18:16:01;97749.31;;;13.67;66.11
20987;BME280;10652;50.306;8.570;2023-05-14T18:20:03;97749.91;;;13.58;67.01
20987;BME280;10652;50.306;8.570;2023-05-14T18:24:05;97751.16;;;13.52;67.82
20987;BME280;10652;50.306;8.570;2023-05-14T18:28:09;97750.66;;;13.46;68.81
20987;BME280;10652;50.306;8.570;2023-05-14T18:32:11;97755.59;;;13.52;72.75
20987;BME280;10652;50.306;8.570;2023-05-14T18:36:13;97752.16;;;13.50;70.82
20987;BME280;10652;50.306;8.570;2023-05-14T18:40:15;97767.47;;;13.31;71.12
20987;BME280;10652;50.306;8.570;2023-05-14T18:44:20;97761.06;;;13.21;72.62
20987;BME280;10652;50.306;8.570;2023-05-14T18:48:22;97778.88;;;13.17;72.82
20987;BME280;10652;50.306;8.570;2023-05-14T18:52:24;97782.16;;;13.06;73.64
20987;BME280;10652;50.306;8.570;2023-05-14T18:56:27;97797.78;;;12.95;74.78
20987;BME280;10652;50.306;8.570;2023-05-14T19:00:29;97791.00;;;12.91;75.63
20987;BME280;10652;50.306;8.570;2023-05-14T19:04:31;97794.41;;;13.07;74.24
20987;BME280;10652;50.306;8.570;2023-05-14T19:08:34;97789.81;;;13.25;72.27
20987;BME280;10652;50.306;8.570;2023-05-14T19:12:37;97799.78;;;13.34;71.60
20987;BME280;10652;50.306;8.570;2023-05-14T19:16:39;97798.34;;;13.43;71.38
20987;BME280;10652;50.306;8.570;2023-05-14T19:20:41;97807.00;;;13.45;71.16
20987;BME280;10652;50.306;8.570;2023-05-14T19:24:43;97815.97;;;13.28;72.60
20987;BME280;10652;50.306;8.570;2023-05-14T19:28:46;97810.34;;;13.34;73.01
20987;BME280;10652;50.306;8.570;2023-05-14T19:32:48;97810.06;;;13.25;73.86
20987;BME280;10652;50.306;8.570;2023-05-14T19:36:50;97811.28;;;13.19;74.41
20987;BME280;10652;50.306;8.570;2023-05-14T19:40:52;97812.13;;;13.20;75.33
20987;BME280;10652;50.306;8.570;2023-05-14T19:44:57;97809.28;;;13.23;76.22
20987;BME280;10652;50.306;8.570;2023-05-14T19:48:59;97812.78;;;13.23;76.72
20987;BME280;10652;50.306;8.570;2023-05-14T19:53:02;97803.28;;;13.21;76.86
20987;BME280;10652;50.306;8.570;2023-05-14T19:57:05;97803.28;;;13.21;76.90
20987;BME280;10652;50.306;8.570;2023-05-14T20:01:07;97798.16;;;13.18;77.17
20987;BME280;10652;50.306;8.570;2023-05-14T20:05:09;97803.44;;;13.18;78.30
20987;BME280;10652;50.306;8.570;2023-05-14T20:09:11;97794.88;;;13.00;79.11
20987;BME280;10652;50.306;8.570;2023-05-14T20:13:14;97792.47;;;12.81;80.60
20987;BME280;10652;50.306;8.570;2023-05-14T20:17:16;97792.28;;;12.70;82.30
20987;BME280;10652;50.306;8.570;2023-05-14T20:21:18;97791.06;;;12.61;83.39
20987;BME280;10652;50.306;8.570;2023-05-14T20:25:20;97797.28;;;12.45;84.39
20987;BME280;10652;50.306;8.570;2023-05-14T20:29:23;97790.78;;;12.36;86.83
20987;BME280;10652;50.306;8.570;2023-05-14T20:33:25;97796.81;;;12.38;87.55
20987;BME280;10652;50.306;8.570;2023-05-14T20:37:28;97785.44;;;12.38;87.95
20987;BME280;10652;50.306;8.570;2023-05-14T20:41:31;97795.78;;;12.41;88.20
20987;BME280;10652;50.306;8.570;2023-05-14T20:45:33;97799.19;;;12.43;88.28
20987;BME280;10652;50.306;8.570;2023-05-14T20:49:35;97786.09;;;12.41;88.36
20987;BME280;10652;50.306;8.570;2023-05-14T20:53:37;97781.25;;;12.34;87.28
20987;BME280;10652;50.306;8.570;2023-05-14T20:57:39;97779.19;;;12.09;87.49
20987;BME280;10652;50.306;8.570;2023-05-14T21:01:44;97774.28;;;11.87;89.53
20987;BME280;10652;50.306;8.570;2023-05-14T21:05:46;97770.72;;;11.72;90.69
20987;BME280;10652;50.306;8.570;2023-05-14T21:09:48;97763.28;;;11.65;92.29
20987;BME280;10652;50.306;8.570;2023-05-14T21:13:53;97770.91;;;11.54;93.12
20987;BME280;10652;50.306;8.570;2023-05-14T21:17:55;97759.72;;;11.50;93.37
20987;BME280;10652;50.306;8.570;2023-05-14T21:21:57;97757.50;;;11.43;93.21
20987;BME280;10652;50.306;8.570;2023-05-14T21:25:59;97761.25;;;11.39;93.28
20987;BME280;10652;50.306;8.570;2023-05-14T21:30:01;97760.72;;;11.32;93.36